createdAt,value
2023-05-16T00:00:01.707Z,0
2023-05-16T00:01:02.280Z,0
2023-05-16T00:02:03.013Z,0
2023-05-16T00:03:03.762Z,0
2023-05-16T00:04:04.634Z,0
2023-05-16T00:05:05.343Z,0
2023-05-16T00:06:05.903Z,0
2023-05-16T00:07:06.501Z,0
2023-05-16T00:08:07.091Z,0
2023-05-16T00:09:07.709Z,0
2023-05-16T00:10:08.285Z,0
2023-05-16T00:11:08.929Z,0
2023-05-16T00:12:09.500Z,0
2023-05-16T00:13:10.094Z,0
2023-05-16T00:14:10.691Z,0
2023-05-16T00:15:11.306Z,0
2023-05-16T00:16:11.962Z,0
2023-05-16T00:17:12.590Z,0
2023-05-16T00:18:13.143Z,0
2023-05-16T00:19:13.811Z,0
2023-05-16T00:20:14.415Z,0
2023-05-16T00:21:15.013Z,0
2023-05-16T00:22:15.604Z,0
2023-05-16T00:23:16.207Z,0
2023-05-16T00:24:16.819Z,0
2023-05-16T00:25:17.418Z,0
2023-05-16T00:26:18.009Z,0
2023-05-16T00:27:18.606Z,0
2023-05-16T00:28:19.208Z,0
2023-05-16T00:29:19.843Z,0
2023-05-16T00:30:20.393Z,0
2023-05-16T00:31:21.027Z,0
2023-05-16T00:32:21.759Z,0
2023-05-16T00:33:22.390Z,0
2023-05-16T00:34:23.130Z,0
2023-05-16T00:35:23.606Z,0
2023-05-16T00:36:24.192Z,0
2023-05-16T00:37:24.786Z,0
2023-05-16T00:38:25.385Z,0
2023-05-16T00:39:25.981Z,0
2023-05-16T00:40:26.738Z,0
2023-05-16T00:41:27.408Z,0
2023-05-16T00:42:28.008Z,0
2023-05-16T00:43:28.608Z,0
2023-05-16T00:44:29.194Z,0
2023-05-16T00:45:29.796Z,0
2023-05-16T00:46:30.406Z,0
2023-05-16T00:47:31.035Z,0
2023-05-16T00:48:31.628Z,0
2023-05-16T00:49:32.219Z,0
2023-05-16T00:50:32.813Z,0
2023-05-16T00:51:33.410Z,0
2023-05-16T00:52:34.004Z,0
2023-05-16T00:53:34.601Z,0
2023-05-16T00:54:35.221Z,0
2023-05-16T00:55:35.834Z,0
2023-05-16T00:56:36.412Z,0
2023-05-16T00:57:37.000Z,0
2023-05-16T00:58:37.602Z,0
2023-05-16T00:59:38.199Z,0
2023-05-16T01:00:38.798Z,0
2023-05-16T01:01:39.460Z,0
2023-05-16T01:02:40.176Z,0
2023-05-16T01:03:40.874Z,0
2023-05-16T01:04:41.387Z,0
2023-05-16T01:05:41.996Z,0
2023-05-16T01:06:42.594Z,0
2023-05-16T01:07:43.189Z,0
2023-05-16T01:08:43.806Z,0
2023-05-16T01:09:44.395Z,0
2023-05-16T01:10:44.992Z,0
2023-05-16T01:11:45.583Z,0
2023-05-16T01:12:46.202Z,0
2023-05-16T01:13:46.796Z,0
2023-05-16T01:14:47.407Z,0
2023-05-16T01:15:48.075Z,0
2023-05-16T01:16:48.766Z,0
2023-05-16T01:17:49.399Z,0
2023-05-16T01:18:50.010Z,0
2023-05-16T01:19:50.564Z,0
2023-05-16T01:20:51.177Z,0
2023-05-16T01:21:51.772Z,0
2023-05-16T01:22:52.372Z,0
2023-05-16T01:23:52.978Z,0
2023-05-16T01:24:53.576Z,0
2023-05-16T01:25:54.173Z,0
2023-05-16T01:26:54.805Z,0
2023-05-16T01:27:55.404Z,0
2023-05-16T01:28:56.043Z,0
2023-05-16T01:29:56.603Z,0
2023-05-16T01:30:57.198Z,0
2023-05-16T01:31:57.843Z,0
2023-05-16T01:32:58.406Z,0
2023-05-16T01:33:58.985Z,0
2023-05-16T01:34:59.578Z,0
2023-05-16T01:36:00.169Z,0
2023-05-16T01:37:00.769Z,0
2023-05-16T01:38:01.359Z,0
2023-05-16T01:39:01.952Z,0
2023-05-16T01:40:02.547Z,0
2023-05-16T01:41:03.147Z,0
2023-05-16T01:42:03.763Z,0
2023-05-16T01:43:04.330Z,0
2023-05-16T01:44:04.924Z,0
2023-05-16T01:45:05.527Z,0
2023-05-16T01:46:06.119Z,0
2023-05-16T01:47:06.779Z,0
2023-05-16T01:48:07.519Z,0
2023-05-16T01:49:08.108Z,0
2023-05-16T01:50:08.696Z,0
2023-05-16T01:51:09.289Z,0
2023-05-16T01:52:09.902Z,0
2023-05-16T01:53:10.480Z,0
2023-05-16T01:54:11.088Z,0
2023-05-16T01:55:11.675Z,0
2023-05-16T01:56:12.267Z,0
2023-05-16T01:57:12.863Z,0
2023-05-16T01:58:13.460Z,0
2023-05-16T01:59:14.055Z,0
2023-05-16T02:00:14.649Z,0
2023-05-16T02:01:15.253Z,0
2023-05-16T02:02:15.837Z,0
2023-05-16T02:03:16.628Z,0
2023-05-16T02:04:17.332Z,0
2023-05-16T02:05:17.836Z,0
2023-05-16T02:06:18.425Z,0
2023-05-16T02:07:19.023Z,0
2023-05-16T02:08:19.636Z,0
2023-05-16T02:09:20.230Z,0
2023-05-16T02:10:20.826Z,0
2023-05-16T02:11:21.419Z,0
2023-05-16T02:12:22.014Z,0
2023-05-16T02:13:22.608Z,0
2023-05-16T02:14:23.219Z,0
2023-05-16T02:15:23.820Z,0
2023-05-16T02:16:24.458Z,0
2023-05-16T02:17:25.027Z,0
2023-05-16T02:18:25.599Z,0
2023-05-16T02:19:26.202Z,0
2023-05-16T02:20:26.813Z,0
2023-05-16T02:21:27.427Z,0
2023-05-16T02:22:28.021Z,0
2023-05-16T02:23:28.625Z,0
2023-05-16T02:24:29.212Z,0
2023-05-16T02:25:29.815Z,0
2023-05-16T02:26:30.423Z,0
2023-05-16T02:27:31.018Z,0
2023-05-16T02:28:31.609Z,0
2023-05-16T02:29:32.206Z,0
2023-05-16T02:30:32.802Z,0
2023-05-16T02:31:33.618Z,0
2023-05-16T02:32:34.318Z,0
2023-05-16T02:33:34.889Z,0
2023-05-16T02:34:35.507Z,0
2023-05-16T02:35:36.106Z,0
2023-05-16T02:36:36.699Z,0
2023-05-16T02:37:37.321Z,0
2023-05-16T02:38:37.910Z,0
2023-05-16T02:39:38.505Z,0
2023-05-16T02:40:39.099Z,0
2023-05-16T02:41:39.697Z,0
2023-05-16T02:42:40.298Z,0
2023-05-16T02:43:40.885Z,0
2023-05-16T02:44:41.478Z,0
2023-05-16T02:45:42.099Z,0
2023-05-16T02:46:42.819Z,0
2023-05-16T02:47:43.473Z,0
2023-05-16T02:48:44.061Z,0
2023-05-16T02:49:44.654Z,0
2023-05-16T02:50:45.249Z,0
2023-05-16T02:51:45.848Z,0
2023-05-16T02:52:46.437Z,0
2023-05-16T02:53:47.041Z,0
2023-05-16T02:54:59.895Z,0
2023-05-16T02:55:49.259Z,0
2023-05-16T02:56:49.835Z,0
2023-05-16T02:57:50.454Z,0
2023-05-16T02:58:51.048Z,0
2023-05-16T02:59:51.659Z,0
2023-05-16T03:00:52.252Z,0
2023-05-16T03:01:52.953Z,4
2023-05-16T03:02:53.593Z,0
2023-05-16T03:03:54.294Z,4
2023-05-16T03:04:54.911Z,4
2023-05-16T03:05:55.498Z,4
2023-05-16T03:06:56.096Z,4
2023-05-16T03:07:56.711Z,8
2023-05-16T03:08:57.324Z,8
2023-05-16T03:09:57.919Z,12
2023-05-16T03:10:58.517Z,12
2023-05-16T03:11:59.106Z,16
2023-05-16T03:12:59.704Z,20
2023-05-16T03:14:01.785Z,24
2023-05-16T03:15:01.989Z,24
2023-05-16T03:16:02.579Z,28
2023-05-16T03:17:03.161Z,36
2023-05-16T03:18:03.761Z,44
2023-05-16T03:19:04.438Z,52
2023-05-16T03:20:05.074Z,64
2023-05-16T03:21:05.606Z,80
2023-05-16T03:22:06.203Z,88
2023-05-16T03:23:06.821Z,104
2023-05-16T03:24:07.524Z,120
2023-05-16T03:25:08.108Z,144
2023-05-16T03:26:08.716Z,168
2023-05-16T03:27:09.312Z,196
2023-05-16T03:28:09.948Z,212
2023-05-16T03:29:10.517Z,236
2023-05-16T03:30:11.105Z,276
2023-05-16T03:31:11.820Z,300
2023-05-16T03:32:12.434Z,324
2023-05-16T03:33:12.985Z,340
2023-05-16T03:34:13.586Z,364
2023-05-16T03:35:14.185Z,400
2023-05-16T03:36:14.780Z,436
2023-05-16T03:37:15.378Z,476
2023-05-16T03:38:15.980Z,508
2023-05-16T03:39:16.577Z,540
2023-05-16T03:40:17.178Z,572
2023-05-16T03:41:17.798Z,592
2023-05-16T03:42:18.403Z,584
2023-05-16T03:43:19.022Z,572
2023-05-16T03:44:19.637Z,556
2023-05-16T03:45:20.251Z,516
2023-05-16T03:46:20.943Z,496
2023-05-16T03:47:21.484Z,476
2023-05-16T03:48:22.094Z,488
2023-05-16T03:49:22.679Z,524
2023-05-16T03:50:23.291Z,588
2023-05-16T03:51:23.874Z,664
2023-05-16T03:52:24.476Z,736
2023-05-16T03:53:25.096Z,800
2023-05-16T03:54:25.703Z,876
2023-05-16T03:55:26.486Z,928
2023-05-16T03:56:27.184Z,1008
2023-05-16T03:57:27.789Z,1088
2023-05-16T03:58:28.399Z,1168
2023-05-16T03:59:29.014Z,1248
2023-05-16T04:00:29.603Z,1332
2023-05-16T04:01:30.196Z,1388
2023-05-16T04:02:30.932Z,1400
2023-05-16T04:03:31.668Z,1372
2023-05-16T04:04:32.260Z,1428
2023-05-16T04:05:32.909Z,1536
2023-05-16T04:06:33.480Z,1556
2023-05-16T04:07:34.092Z,1504
2023-05-16T04:08:34.679Z,1460
2023-05-16T04:09:35.288Z,1392
2023-05-16T04:10:35.878Z,1436
2023-05-16T04:11:36.482Z,1456
2023-05-16T04:12:37.079Z,1416
2023-05-16T04:13:37.736Z,1308
2023-05-16T04:14:38.361Z,1132
2023-05-16T04:15:38.960Z,1000
2023-05-16T04:16:39.589Z,896
2023-05-16T04:17:40.235Z,824
2023-05-16T04:18:40.804Z,744
2023-05-16T04:19:41.391Z,664
2023-05-16T04:20:42.007Z,592
2023-05-16T04:21:42.605Z,628
2023-05-16T04:22:43.207Z,720
2023-05-16T04:23:43.820Z,852
2023-05-16T04:24:44.446Z,988
2023-05-16T04:25:45.022Z,1148
2023-05-16T04:26:45.622Z,1376
2023-05-16T04:27:46.225Z,1620
2023-05-16T04:28:46.822Z,1844
2023-05-16T04:29:47.448Z,1984
2023-05-16T04:30:48.052Z,2084
2023-05-16T04:31:48.655Z,2208
2023-05-16T04:32:49.292Z,2224
2023-05-16T04:33:49.876Z,2232
2023-05-16T04:34:50.472Z,2256
2023-05-16T04:35:51.074Z,2348
2023-05-16T04:36:51.674Z,2528
2023-05-16T04:37:52.277Z,2628
2023-05-16T04:38:52.885Z,2656
2023-05-16T04:39:53.478Z,2684
2023-05-16T04:40:54.085Z,2908
2023-05-16T04:41:54.689Z,3288
2023-05-16T04:42:55.303Z,3640
2023-05-16T04:43:55.911Z,3920
2023-05-16T04:44:56.524Z,4332
2023-05-16T04:45:57.158Z,4728
2023-05-16T04:46:57.856Z,4932
2023-05-16T04:47:58.503Z,5204
2023-05-16T04:48:59.079Z,5428
2023-05-16T04:49:59.697Z,5504
2023-05-16T04:51:00.317Z,5512
2023-05-16T04:52:00.917Z,5568
2023-05-16T04:53:01.519Z,5672
2023-05-16T04:54:02.120Z,5876
2023-05-16T04:55:02.730Z,6152
2023-05-16T04:56:03.329Z,6500
2023-05-16T04:57:03.923Z,6752
2023-05-16T04:58:04.529Z,6852
2023-05-16T04:59:05.137Z,6916
2023-05-16T05:00:05.726Z,6992
2023-05-16T05:01:06.324Z,7264
2023-05-16T05:02:07.194Z,7504
2023-05-16T05:03:07.880Z,7536
2023-05-16T05:04:08.450Z,7708
2023-05-16T05:05:09.114Z,7656
2023-05-16T05:06:09.811Z,7764
2023-05-16T05:07:10.402Z,8560
2023-05-16T05:08:10.998Z,9408
2023-05-16T05:09:11.600Z,10052
2023-05-16T05:10:12.207Z,10528
2023-05-16T05:11:12.810Z,10932
2023-05-16T05:12:13.438Z,11408
2023-05-16T05:13:14.031Z,12056
2023-05-16T05:14:14.649Z,12744
2023-05-16T05:15:15.270Z,13452
2023-05-16T05:16:15.872Z,13480
2023-05-16T05:17:16.547Z,14208
2023-05-16T05:18:17.135Z,14252
2023-05-16T05:19:17.739Z,13608
2023-05-16T05:20:18.341Z,12956
2023-05-16T05:21:18.951Z,12464
2023-05-16T05:22:19.557Z,12148
2023-05-16T05:23:20.180Z,12016
2023-05-16T05:24:20.776Z,12060
2023-05-16T05:25:21.381Z,12112
2023-05-16T05:26:22.001Z,12248
2023-05-16T05:27:22.582Z,12316
2023-05-16T05:28:23.184Z,12500
2023-05-16T05:29:23.804Z,12584
2023-05-16T05:30:24.412Z,12724
2023-05-16T05:31:25.028Z,12672
2023-05-16T05:32:25.669Z,12636
2023-05-16T05:33:26.280Z,12620
2023-05-16T05:34:26.894Z,12716
2023-05-16T05:35:27.674Z,12920
2023-05-16T05:36:28.368Z,13164
2023-05-16T05:37:28.973Z,13376
2023-05-16T05:38:29.590Z,13548
2023-05-16T05:39:30.191Z,13624
2023-05-16T05:40:30.799Z,13672
2023-05-16T05:41:31.393Z,13748
2023-05-16T05:42:32.000Z,13812
2023-05-16T05:43:32.605Z,13976
2023-05-16T05:44:33.199Z,14068
2023-05-16T05:45:33.850Z,14064
2023-05-16T05:46:34.503Z,14376
2023-05-16T05:47:35.155Z,14208
2023-05-16T05:48:35.689Z,14112
2023-05-16T05:49:36.293Z,14264
2023-05-16T05:50:36.917Z,14280
2023-05-16T05:51:37.540Z,14568
2023-05-16T05:52:38.153Z,14488
2023-05-16T05:53:38.759Z,14000
2023-05-16T05:54:39.365Z,13636
2023-05-16T05:55:39.971Z,13468
2023-05-16T05:56:40.569Z,13540
2023-05-16T05:57:41.173Z,13520
2023-05-16T05:58:41.781Z,13548
2023-05-16T05:59:42.395Z,13472
2023-05-16T06:00:43.020Z,13940
2023-05-16T06:01:43.682Z,14056
2023-05-16T06:02:44.372Z,14332
2023-05-16T06:03:44.858Z,14500
2023-05-16T06:04:45.477Z,14808
2023-05-16T06:05:46.088Z,15184
2023-05-16T06:06:46.687Z,15528
2023-05-16T06:07:47.283Z,15784
2023-05-16T06:08:47.884Z,15932
2023-05-16T06:09:48.491Z,16076
2023-05-16T06:10:49.090Z,16068
2023-05-16T06:11:49.707Z,16604
2023-05-16T06:12:50.312Z,16976
2023-05-16T06:13:50.911Z,17056
2023-05-16T06:14:51.511Z,16948
2023-05-16T06:15:52.114Z,16816
2023-05-16T06:16:52.765Z,16348
2023-05-16T06:17:53.375Z,17424
2023-05-16T06:18:54.063Z,16664
2023-05-16T06:19:54.636Z,16452
2023-05-16T06:20:55.259Z,16372
2023-05-16T06:21:55.864Z,16292
2023-05-16T06:22:56.469Z,16532
2023-05-16T06:23:57.058Z,17824
2023-05-16T06:24:57.707Z,18432
2023-05-16T06:25:58.281Z,19552
2023-05-16T06:26:58.886Z,20064
2023-05-16T06:27:59.505Z,21280
2023-05-16T06:29:00.161Z,19424
2023-05-16T06:30:00.752Z,21440
2023-05-16T06:31:01.406Z,17520
2023-05-16T06:32:02.064Z,20096
2023-05-16T06:33:02.874Z,19680
2023-05-16T06:34:03.452Z,20160
2023-05-16T06:35:04.065Z,16796
2023-05-16T06:36:04.670Z,15196
2023-05-16T06:37:05.313Z,17728
2023-05-16T06:38:05.887Z,17824
2023-05-16T06:39:06.487Z,16092
2023-05-16T06:40:07.087Z,17080
2023-05-16T06:41:07.695Z,19104
2023-05-16T06:42:08.288Z,20512
2023-05-16T06:43:08.913Z,20032
2023-05-16T06:44:09.515Z,18528
2023-05-16T06:45:10.111Z,17232
2023-05-16T06:46:10.788Z,17296
2023-05-16T06:47:11.369Z,22688
2023-05-16T06:48:12.054Z,21824
2023-05-16T06:49:12.644Z,17384
2023-05-16T06:50:13.252Z,21760
2023-05-16T06:51:13.879Z,28896
2023-05-16T06:52:14.469Z,22176
2023-05-16T06:53:15.074Z,26976
2023-05-16T06:54:15.670Z,31232
2023-05-16T06:55:16.294Z,30848
2023-05-16T06:56:16.895Z,21120
2023-05-16T06:57:17.512Z,23392
2023-05-16T06:58:18.133Z,33088
2023-05-16T06:59:18.743Z,29056
2023-05-16T07:00:19.341Z,31584
2023-05-16T07:01:19.983Z,35680
2023-05-16T07:02:20.684Z,34720
2023-05-16T07:03:21.293Z,25600
2023-05-16T07:04:21.875Z,34912
2023-05-16T07:05:22.486Z,33184
2023-05-16T07:06:23.103Z,27072
2023-05-16T07:07:23.711Z,13888
2023-05-16T07:08:24.305Z,12720
2023-05-16T07:09:24.913Z,13760
2023-05-16T07:10:25.530Z,16536
2023-05-16T07:11:26.105Z,22720
2023-05-16T07:12:26.744Z,19168
2023-05-16T07:13:27.309Z,19072
2023-05-16T07:14:27.911Z,16476
2023-05-16T07:15:28.725Z,15800
2023-05-16T07:16:29.489Z,17224
2023-05-16T07:17:30.187Z,19392
2023-05-16T07:18:30.776Z,39488
2023-05-16T07:19:31.371Z,23936
2023-05-16T07:20:32.117Z,37632
2023-05-16T07:21:32.639Z,21472
2023-05-16T07:22:33.255Z,23808
2023-05-16T07:23:33.861Z,22560
2023-05-16T07:24:34.457Z,20416
2023-05-16T07:25:35.066Z,16320
2023-05-16T07:26:35.660Z,14396
2023-05-16T07:27:36.258Z,14384
2023-05-16T07:28:36.888Z,16156
2023-05-16T07:29:37.532Z,19232
2023-05-16T07:30:38.094Z,57504
2023-05-16T07:31:38.783Z,26816
2023-05-16T07:32:39.417Z,44256
2023-05-16T07:33:40.010Z,27776
2023-05-16T07:34:40.612Z,25280
2023-05-16T07:35:41.215Z,29568
2023-05-16T07:36:41.811Z,55872
2023-05-16T07:37:42.461Z,62912
2023-05-16T07:38:43.071Z,69600
2023-05-16T07:39:43.838Z,48384
2023-05-16T07:40:44.451Z,65440
2023-05-16T07:41:45.062Z,29920
2023-05-16T07:42:45.659Z,26208
2023-05-16T07:43:46.264Z,24864
2023-05-16T07:44:46.881Z,22208
2023-05-16T07:45:47.541Z,19104
2023-05-16T07:46:48.129Z,17136
2023-05-16T07:47:48.778Z,15680
2023-05-16T07:48:49.369Z,16044
2023-05-16T07:49:49.991Z,17400
2023-05-16T07:50:50.594Z,22560
2023-05-16T07:51:51.227Z,59008
2023-05-16T07:52:51.811Z,21568
2023-05-16T07:53:52.414Z,54560
2023-05-16T07:54:53.017Z,59328
2023-05-16T07:55:53.618Z,52512
2023-05-16T07:56:54.221Z,61504
2023-05-16T07:57:54.841Z,65696
2023-05-16T07:58:55.452Z,65120
2023-05-16T07:59:56.042Z,69344
2023-05-16T08:00:56.655Z,36160
2023-05-16T08:01:57.348Z,75296
2023-05-16T08:02:58.080Z,62528
2023-05-16T08:03:58.747Z,21088
2023-05-16T08:04:59.408Z,18816
2023-05-16T08:06:00.020Z,18208
2023-05-16T08:07:00.575Z,17888
2023-05-16T08:08:01.180Z,18272
2023-05-16T08:09:01.779Z,20032
2023-05-16T08:10:02.376Z,21344
2023-05-16T08:11:02.994Z,22912
2023-05-16T08:12:03.702Z,70656
2023-05-16T08:13:04.227Z,67680
2023-05-16T08:14:04.826Z,69856
2023-05-16T08:15:05.426Z,29312
2023-05-16T08:16:06.089Z,31008
2023-05-16T08:17:06.669Z,52928
2023-05-16T08:18:07.339Z,35552
2023-05-16T08:19:07.947Z,28736
2023-05-16T08:20:08.552Z,31136
2023-05-16T08:21:09.136Z,95584
2023-05-16T08:22:09.782Z,39392
2023-05-16T08:23:10.410Z,107616
2023-05-16T08:24:11.013Z,106752
2023-05-16T08:25:11.620Z,101568
2023-05-16T08:26:12.237Z,33984
2023-05-16T08:27:12.859Z,32640
2023-05-16T08:28:13.452Z,88192
2023-05-16T08:29:14.052Z,49536
2023-05-16T08:30:14.655Z,31552
2023-05-16T08:31:15.312Z,24480
2023-05-16T08:32:15.873Z,21568
2023-05-16T08:33:16.598Z,20800
2023-05-16T08:34:17.206Z,20704
2023-05-16T08:35:17.827Z,63232
2023-05-16T08:36:18.430Z,65216
2023-05-16T08:37:19.041Z,74016
2023-05-16T08:38:19.642Z,35072
2023-05-16T08:39:20.265Z,48864
2023-05-16T08:40:20.869Z,41280
2023-05-16T08:41:21.492Z,30528
2023-05-16T08:42:22.092Z,89312
2023-05-16T08:43:22.692Z,93920
2023-05-16T08:44:23.323Z,51936
2023-05-16T08:45:23.942Z,89824
2023-05-16T08:46:24.579Z,27968
2023-05-16T08:47:25.183Z,27808
2023-05-16T08:48:25.802Z,29024
2023-05-16T08:49:26.417Z,36640
2023-05-16T08:50:27.016Z,24960
2023-05-16T08:51:27.615Z,24576
2023-05-16T08:52:28.218Z,26080
2023-05-16T08:53:28.819Z,27648
2023-05-16T08:54:29.423Z,29248
2023-05-16T08:55:30.230Z,31840
2023-05-16T08:56:30.642Z,64864
2023-05-16T08:57:31.247Z,86656
2023-05-16T08:58:31.857Z,86560
2023-05-16T08:59:32.466Z,90400
2023-05-16T09:00:33.070Z,95488
2023-05-16T09:01:33.779Z,93216
2023-05-16T09:02:34.497Z,81056
2023-05-16T09:03:35.101Z,69952
2023-05-16T09:04:35.699Z,72320
2023-05-16T09:05:36.292Z,86432
2023-05-16T09:06:36.927Z,100064
2023-05-16T09:07:37.529Z,102784
2023-05-16T09:08:38.132Z,96128
2023-05-16T09:09:38.731Z,29088
2023-05-16T09:10:39.358Z,89632
2023-05-16T09:11:39.953Z,93088
2023-05-16T09:12:40.558Z,38848
2023-05-16T09:13:41.159Z,34784
2023-05-16T09:14:41.776Z,73504
2023-05-16T09:15:42.382Z,87168
2023-05-16T09:16:43.024Z,86976
2023-05-16T09:17:43.770Z,91360
2023-05-16T09:18:44.530Z,95232
2023-05-16T09:19:45.303Z,97504
2023-05-16T09:20:46.152Z,100096
2023-05-16T09:21:46.760Z,87904
2023-05-16T09:22:47.379Z,39680
2023-05-16T09:23:47.981Z,113952
2023-05-16T09:24:48.590Z,126496
2023-05-16T09:25:49.187Z,66752
2023-05-16T09:26:49.792Z,41632
2023-05-16T09:27:50.392Z,36448
2023-05-16T09:28:50.996Z,30368
2023-05-16T09:29:51.599Z,27360
2023-05-16T09:30:52.280Z,24992
2023-05-16T09:31:52.944Z,24160
2023-05-16T09:32:53.588Z,26304
2023-05-16T09:33:54.124Z,29664
2023-05-16T09:34:54.723Z,32288
2023-05-16T09:35:55.335Z,75680
2023-05-16T09:36:55.973Z,113504
2023-05-16T09:37:56.581Z,107520
2023-05-16T09:38:57.183Z,108672
2023-05-16T09:39:57.786Z,116000
2023-05-16T09:40:58.389Z,125856
2023-05-16T09:41:58.995Z,124352
2023-05-16T09:42:59.596Z,146016
2023-05-16T09:44:00.198Z,152704
2023-05-16T09:45:02.241Z,147232
2023-05-16T09:46:02.904Z,133952
2023-05-16T09:47:03.456Z,111712
2023-05-16T09:48:04.107Z,48896
2023-05-16T09:49:04.676Z,52672
2023-05-16T09:50:05.287Z,50304
2023-05-16T09:51:05.890Z,110912
2023-05-16T09:52:06.511Z,47648
2023-05-16T09:53:07.127Z,45216
2023-05-16T09:54:07.715Z,33696
2023-05-16T09:55:08.320Z,27616
2023-05-16T09:56:08.918Z,74912
2023-05-16T09:57:09.528Z,83136
2023-05-16T09:58:10.135Z,95648
2023-05-16T09:59:10.755Z,100768
2023-05-16T10:00:11.377Z,94816
2023-05-16T10:01:11.987Z,86624
2023-05-16T10:02:12.603Z,86656
2023-05-16T10:03:13.217Z,95264
2023-05-16T10:04:13.872Z,68288
2023-05-16T10:05:14.490Z,36448
2023-05-16T10:06:15.093Z,33152
2023-05-16T10:07:16.370Z,39136
2023-05-16T10:08:16.969Z,79104
2023-05-16T10:09:17.587Z,39776
2023-05-16T10:10:18.339Z,130112
2023-05-16T10:11:18.920Z,123968
2023-05-16T10:12:19.537Z,114048
2023-05-16T10:13:20.149Z,111648
2023-05-16T10:14:20.752Z,117280
2023-05-16T10:15:21.358Z,127488
2023-05-16T10:16:22.030Z,144224
2023-05-16T10:17:22.578Z,160928
2023-05-16T10:18:23.178Z,160480
2023-05-16T10:19:23.894Z,151808
2023-05-16T10:20:24.557Z,139040
2023-05-16T10:21:25.161Z,121088
2023-05-16T10:22:25.919Z,137792
2023-05-16T10:23:26.441Z,164512
2023-05-16T10:24:27.039Z,159712
2023-05-16T10:25:28.107Z,134208
2023-05-16T10:26:28.895Z,175040
2023-05-16T10:27:29.511Z,91872
2023-05-16T10:28:30.112Z,92608
2023-05-16T10:29:37.452Z,135584
2023-05-16T10:30:31.336Z,68256
2023-05-16T10:31:31.936Z,57184
2023-05-16T10:32:32.595Z,50304
2023-05-16T10:33:33.167Z,38176
2023-05-16T10:34:33.766Z,36352
2023-05-16T10:35:34.366Z,118560
2023-05-16T10:36:34.969Z,23328
2023-05-16T10:37:35.589Z,18208
2023-05-16T10:38:36.192Z,15520
2023-05-16T10:39:36.811Z,15044
2023-05-16T10:40:37.409Z,16116
2023-05-16T10:41:38.033Z,17840
2023-05-16T10:42:38.635Z,21728
2023-05-16T10:43:39.244Z,87872
2023-05-16T10:44:39.900Z,131776
2023-05-16T10:45:40.979Z,126592
2023-05-16T10:46:41.577Z,143744
2023-05-16T10:47:42.201Z,144704
2023-05-16T10:48:42.792Z,145536
2023-05-16T10:49:43.392Z,58528
2023-05-16T10:50:44.020Z,110112
2023-05-16T10:51:44.634Z,125568
2023-05-16T10:52:45.248Z,114560
2023-05-16T10:53:45.890Z,88640
2023-05-16T10:54:46.487Z,159328
2023-05-16T10:55:47.093Z,162816
2023-05-16T10:56:47.702Z,55200
2023-05-16T10:57:48.297Z,60384
2023-05-16T10:58:48.900Z,52512
2023-05-16T10:59:49.520Z,44640
2023-05-16T11:00:50.181Z,38496
2023-05-16T11:01:50.877Z,34464
2023-05-16T11:02:51.501Z,32544
2023-05-16T11:03:52.118Z,32192
2023-05-16T11:04:52.716Z,33376
2023-05-16T11:05:53.528Z,50016
2023-05-16T11:06:54.130Z,31264
2023-05-16T11:07:54.757Z,31648
2023-05-16T11:08:55.359Z,34240
2023-05-16T11:09:55.982Z,37280
2023-05-16T11:10:56.584Z,39104
2023-05-16T11:11:57.199Z,40992
2023-05-16T11:12:57.815Z,42688
2023-05-16T11:13:58.470Z,42112
2023-05-16T11:14:59.073Z,42048
2023-05-16T11:15:59.674Z,42944
2023-05-16T11:17:00.445Z,44256
2023-05-16T11:18:01.074Z,41152
2023-05-16T11:19:01.680Z,48960
2023-05-16T11:20:02.250Z,140352
2023-05-16T11:21:02.855Z,153792
2023-05-16T11:22:03.460Z,173568
2023-05-16T11:23:04.282Z,155744
2023-05-16T11:24:04.889Z,135584
2023-05-16T11:25:05.497Z,83200
2023-05-16T11:26:06.096Z,102976
2023-05-16T11:27:06.711Z,151616
2023-05-16T11:28:07.298Z,179104
2023-05-16T11:29:07.906Z,196064
2023-05-16T11:30:08.505Z,184992
2023-05-16T11:31:09.343Z,161504
2023-05-16T11:32:09.992Z,41504
2023-05-16T11:33:10.630Z,41920
2023-05-16T11:34:11.205Z,43072
2023-05-16T11:35:25.398Z,143904
2023-05-16T11:36:16.323Z,138784
2023-05-16T11:37:14.025Z,67072
2023-05-16T11:38:14.627Z,73376
2023-05-16T11:39:15.278Z,159360
2023-05-16T11:40:15.890Z,155136
2023-05-16T11:41:16.770Z,171520
2023-05-16T11:42:17.340Z,181664
2023-05-16T11:43:17.933Z,181472
2023-05-16T11:44:18.548Z,168384
2023-05-16T11:45:19.144Z,149376
2023-05-16T11:46:19.788Z,127232
2023-05-16T11:47:20.345Z,110048
2023-05-16T11:48:32.549Z,99264
2023-05-16T11:49:21.579Z,99264
2023-05-16T11:50:22.326Z,118912
2023-05-16T11:51:22.944Z,50688
2023-05-16T11:52:23.544Z,53472
2023-05-16T11:53:24.155Z,56256
2023-05-16T11:54:24.777Z,50432
2023-05-16T11:55:40.168Z,50848
2023-05-16T11:56:26.970Z,51456
2023-05-16T11:57:27.594Z,54304
2023-05-16T11:58:28.194Z,44864
2023-05-16T11:59:28.821Z,43072
2023-05-16T12:00:29.413Z,40256
2023-05-16T12:01:30.398Z,42528
2023-05-16T12:02:31.026Z,95200
2023-05-16T12:03:31.727Z,188160
2023-05-16T12:04:32.473Z,54560
2023-05-16T12:05:34.067Z,51008
2023-05-16T12:06:34.731Z,44000
2023-05-16T12:07:35.337Z,41952
2023-05-16T12:08:35.938Z,41600
2023-05-16T12:09:36.559Z,43136
2023-05-16T12:10:37.161Z,44608
2023-05-16T12:11:37.782Z,44352
2023-05-16T12:12:38.384Z,48384
2023-05-16T12:13:38.987Z,41056
2023-05-16T12:14:39.591Z,38752
2023-05-16T12:15:40.196Z,44512
2023-05-16T12:16:40.862Z,36160
2023-05-16T12:17:41.462Z,36768
2023-05-16T12:18:43.471Z,56160
2023-05-16T12:19:43.625Z,64416
2023-05-16T12:20:44.226Z,140512
2023-05-16T12:21:44.858Z,129632
2023-05-16T12:22:45.441Z,61408
2023-05-16T12:23:46.048Z,65792
2023-05-16T12:24:46.663Z,47040
2023-05-16T12:25:47.267Z,39776
2023-05-16T12:26:47.869Z,33920
2023-05-16T12:27:48.469Z,29088
2023-05-16T12:28:49.071Z,26048
2023-05-16T12:29:49.678Z,24384
2023-05-16T12:30:50.280Z,23424
2023-05-16T12:31:50.894Z,22848
2023-05-16T12:32:51.628Z,23328
2023-05-16T12:33:52.285Z,24864
2023-05-16T12:34:52.906Z,26720
2023-05-16T12:35:53.510Z,29120
2023-05-16T12:36:54.121Z,31360
2023-05-16T12:37:54.734Z,34240
2023-05-16T12:38:55.432Z,49376
2023-05-16T12:39:55.954Z,37632
2023-05-16T12:40:56.557Z,42592
2023-05-16T12:41:57.184Z,157600
2023-05-16T12:42:57.809Z,171776
2023-05-16T12:43:58.407Z,172032
2023-05-16T12:44:59.010Z,157696
2023-05-16T12:45:59.669Z,133696
2023-05-16T12:47:00.240Z,114496
2023-05-16T12:48:00.891Z,71840
2023-05-16T12:49:01.457Z,116480
2023-05-16T12:50:02.083Z,36128
2023-05-16T12:51:02.662Z,37856
2023-05-16T12:52:03.261Z,33664
2023-05-16T12:53:03.865Z,33664
2023-05-16T12:54:10.173Z,32320
2023-05-16T12:55:05.114Z,30720
2023-05-16T12:56:05.704Z,29472
2023-05-16T12:57:06.326Z,27520
2023-05-16T12:58:06.978Z,24768
2023-05-16T12:59:07.527Z,21984
2023-05-16T13:00:08.147Z,19872
2023-05-16T13:01:08.797Z,18240
2023-05-16T13:02:09.415Z,17280
2023-05-16T13:03:10.181Z,16480
2023-05-16T13:04:10.797Z,15688
2023-05-16T13:05:11.377Z,14660
2023-05-16T13:06:12.003Z,13788
2023-05-16T13:07:12.602Z,13268
2023-05-16T13:08:13.204Z,13052
2023-05-16T13:09:13.892Z,12916
2023-05-16T13:10:14.428Z,12772
2023-05-16T13:11:15.054Z,12856
2023-05-16T13:12:15.666Z,13624
2023-05-16T13:13:25.155Z,15272
2023-05-16T13:14:17.841Z,17472
2023-05-16T13:15:18.460Z,19104
2023-05-16T13:16:19.151Z,20288
2023-05-16T13:17:19.789Z,21824
2023-05-16T13:18:20.389Z,24736
2023-05-16T13:19:21.264Z,29152
2023-05-16T13:20:22.028Z,34752
2023-05-16T13:21:22.726Z,41824
2023-05-16T13:22:23.348Z,47936
2023-05-16T13:23:23.955Z,72032
2023-05-16T13:24:24.664Z,53280
2023-05-16T13:25:25.240Z,54912
2023-05-16T13:26:25.870Z,64672
2023-05-16T13:27:26.421Z,127232
2023-05-16T13:28:27.038Z,66368